Grand Forks Air Force Base
KRDR : now visible

Aeroporto :











RITROVATECI SU...

 
LOGIN :

Iscrizione | Disclaimer

   EN    FR    IT 

 









Sommario :    VFR   VFR Marginale   IFR   IFR Intensivo   IFR Molto Intensivo
Visibilità : 
Base nubi : 
>= 8 km
>= 3000ft
5 / 8 km
1000 / 3000 ft
1500m / 5 km
500 / 1000 ft
800 / 1500m
200 / 500 ft
< 800m
< 200 ft
Simboli :   Temporali  Nebbia  Neve Forte  Precipitazioni Forti  Vento > 20 kt






- Altitudine del aeroporto : 913 ft


KRDR - Grand Forks Air Force Base

ULTIMO METAR :
  • 280600Z AUTO 00000KT 10SM FEW008 SCT012 OVC023 M15/M17 A3011 RMK AO2 OVC V BKN SLP224 $

METARs OBSOLETI :
  • 280523Z AUTO 00000KT 10SM FEW006 BKN060 M15/M17 A3011 RMK AO2 SLP224 $
  • 280456Z AUTO 00000KT 10SM BKN060 M14/M15 A3010 RMK AO2 SLP219 T11391155 $
  • 280356Z AUTO 17003KT 10SM SCT060 M13/M15 A3010 RMK AO2 SLP220 T11321154 $
  • 280256Z 16003KT 10SM BKN026 OVC050 M11/M14 A3011 RMK AO2A CIG 026V031 SLP223 T11151140 58001 $

TAF TAF KRDR
Valido dal 28 a 02 ore il 29 a 08 ore UTC


280200Z 2802/2908 13006KT 9999 SCT009 OVC035 620359 QNH3008INS
BECMG 2805/2806 12006KT 9000 BR OVC009 620095 QNH3009INS
BECMG 2812/2813 27006KT 9999 NSW OVC009 620094 QNH3014INS
BECMG 2815/2816 22006KT 9999 BKN009 OVC015 620094 QNH3000INS
BECMG 2905/2906 18006KT 8000 BR OVC002 620102 QNH2993INS TXM04/2820Z TNM17/2811Z



MetMap, La meteo Aeronautica in un colpo d'occhio ! - Copyright ORBIFLY Dicembre 2007 - Disclaimer

ORBIFLY MET'MAP TEAM :

Programmazione e sviluppo : Alexandra Zaïnal
Concezione : Baudouin d'Aumeries
Aiuto per la programmazione : Marc-Olivier Méhu
Supporto tecnico e logistico : Manuel Goepfert
Aiuto per la traduzione : Arnaldo La Scala

Contatto : metmap@orbifly.com




FONTI E CREDITI :

   NOAA       Earth
Advisory